Time;durP1;ratioP1;P1;durP2;ratioP2;P2;SDS_P1;SDS_P2;PMS_P1;PMS_P2;Temp;Humidity;BMP_temperature;BMP_pressure;BME280_temperature;BME280_humidity;BME280_pressure;Samples;Min_cycle;Max_cycle;Signal;HPM_P1;HPM_P2
2021/12/07 00:05:33;;;;;;;76.62;38.53;;;;;;;0.82;97.38;98593.59;3837518;91;21597;-85
2021/12/07 00:12:06;;;;;;;70.37;38.48;;;;;;;0.83;97.33;98576.88;3852951;91;21182;-85
2021/12/07 00:18:09;;;;;;;77.03;38.58;;;;;;;0.81;97.35;98558.88;3840208;91;21129;-85
2021/12/07 00:24:14;;;;;;;75.62;38.45;;;;;;;0.82;97.35;98551.83;3844767;92;21115;-85
2021/12/07 00:30:33;;;;;;;78.00;38.35;;;;;;;0.87;97.31;98558.94;3853845;91;21206;-86
2021/12/07 00:36:48;;;;;;;78.60;41.63;;;;;;;0.89;97.17;98568.85;3871822;90;21056;-86
2021/12/07 00:43:03;;;;;;;75.52;38.90;;;;;;;0.88;97.18;98571.29;3877173;90;21498;-85
2021/12/07 00:49:22;;;;;;;75.83;40.20;;;;;;;0.88;97.12;98568.05;3878205;90;21171;-85
2021/12/07 00:55:59;;;;;;;77.47;40.78;;;;;;;0.89;97.02;98565.58;3869813;90;21127;-85
2021/12/07 01:02:02;;;;;;;60.80;31.30;;;;;;;0.84;97.05;98566.33;3854435;90;21078;-85
2021/12/07 01:08:19;;;;;;;81.45;40.55;;;;;;;0.76;97.02;98559.85;3835539;91;21552;-85
2021/12/07 01:28:29;;;;;;;91.55;42.03;;;;;;;0.84;97.16;98555.55;3693442;94;21115;-86
2021/12/07 01:35:26;;;;;;;84.47;39.30;;;;;;;0.74;97.11;98553.98;3664920;96;21173;-86
2021/12/07 02:01:13;;;;;;;53.87;27.75;;;;;;;0.43;96.72;98537.81;3859078;91;21043;-85
2021/12/07 02:07:32;;;;;;;45.28;23.18;;;;;;;0.42;96.85;98535.69;3846137;92;21041;-86
2021/12/07 02:20:00;;;;;;;40.85;18.82;;;;;;;0.44;97.03;98536.14;3829798;91;21250;-85
2021/12/07 02:26:02;;;;;;;43.65;22.07;;;;;;;0.46;96.85;98530.44;3845667;92;21079;-85
2021/12/07 02:32:22;;;;;;;34.88;18.60;;;;;;;0.43;96.88;98537.27;3852267;92;21108;-86
2021/12/07 02:38:30;;;;;;;31.48;18.12;;;;;;;0.40;96.72;98544.64;3849727;92;21072;-86
2021/12/07 02:44:44;;;;;;;29.65;17.55;;;;;;;0.43;97.04;98541.84;3857088;92;21107;-86
2021/12/07 02:50:50;;;;;;;29.67;16.32;;;;;;;0.46;96.83;98533.93;3886203;90;21116;-85
2021/12/07 02:56:53;;;;;;;32.40;17.07;;;;;;;0.44;96.56;98534.02;3906770;90;21083;-88
2021/12/07 03:03:06;;;;;;;31.95;18.05;;;;;;;0.47;96.66;98526.66;3873814;90;21100;-86
2021/12/07 03:27:58;;;;;;;32.95;16.80;;;;;;;0.47;96.40;98544.16;3841678;91;21474;-87
2021/12/07 03:34:02;;;;;;;34.63;17.30;;;;;;;0.39;96.18;98556.53;3830143;91;21987;-86
2021/12/07 03:40:07;;;;;;;28.23;15.30;;;;;;;0.33;96.27;98550.28;3868210;91;21596;-89
2021/12/07 03:46:10;;;;;;;37.20;17.75;;;;;;;0.30;96.19;98558.98;3950898;88;42996;-85
2021/12/07 03:52:11;;;;;;;37.83;18.52;;;;;;;0.30;96.44;98562.45;3945403;88;21016;-85
2021/12/07 03:58:14;;;;;;;40.10;19.23;;;;;;;0.29;96.35;98559.53;3944166;88;21096;-86
2021/12/07 04:04:16;;;;;;;39.53;19.17;;;;;;;0.13;96.28;98544.97;3955280;88;21515;-85
2021/12/07 04:10:22;;;;;;;40.90;19.70;;;;;;;0.18;96.16;98567.70;3954285;88;21384;-88
2021/12/07 04:16:23;;;;;;;45.78;20.08;;;;;;;0.15;96.53;98579.09;3947392;88;21099;-88
2021/12/07 04:22:27;;;;;;;42.70;19.42;;;;;;;0.15;96.38;98584.48;3979603;87;21088;-85
2021/12/07 04:28:28;;;;;;;41.40;19.95;;;;;;;0.10;96.30;98585.98;3979297;87;21545;-86
2021/12/07 04:34:32;;;;;;;42.40;20.80;;;;;;;0.01;96.29;98582.50;3986825;87;21060;-87
2021/12/07 04:40:34;;;;;;;43.00;20.72;;;;;;;0.03;96.78;98583.53;3972651;87;21430;-85
2021/12/07 04:46:54;;;;;;;42.33;20.60;;;;;;;0.01;96.51;98582.50;3984349;87;21561;-86
2021/12/07 04:58:57;;;;;;;41.23;20.08;;;;;;;-0.04;96.52;98580.76;3947978;87;21044;-85
2021/12/07 05:04:59;;;;;;;42.73;19.85;;;;;;;0.01;96.69;98582.50;3988981;87;21058;-88
2021/12/07 05:11:24;;;;;;;42.20;19.95;;;;;;;0.00;96.62;98584.97;3987462;87;21413;-86
2021/12/07 05:42:26;;;;;;;34.80;17.55;;;;;;;0.09;96.51;98582.26;3977038;87;21610;-85
2021/12/07 05:48:27;;;;;;;40.43;19.07;;;;;;;-0.01;96.54;98582.02;3965260;87;21617;-85
2021/12/07 05:54:28;;;;;;;42.15;18.23;;;;;;;-0.08;96.57;98574.98;3947641;88;21054;-85
2021/12/07 06:00:33;;;;;;;41.25;17.75;;;;;;;-0.18;96.51;98577.42;3948573;88;21091;-85
2021/12/07 06:06:34;;;;;;;36.85;18.52;;;;;;;-0.20;96.62;98576.14;3958071;88;21058;-85
2021/12/07 06:12:36;;;;;;;37.25;17.27;;;;;;;-0.18;96.67;98582.00;3960683;88;21533;-85
2021/12/07 06:18:37;;;;;;;39.48;18.65;;;;;;;-0.21;96.63;98586.66;3966522;88;21633;-84
2021/12/07 06:24:38;;;;;;;40.98;18.32;;;;;;;-0.20;96.83;98590.93;3959470;88;21055;-86
2021/12/07 06:30:46;;;;;;;44.80;19.07;;;;;;;-0.19;96.75;98587.92;3963719;88;21634;-86
2021/12/07 06:36:48;;;;;;;45.70;19.77;;;;;;;-0.30;96.69;98569.73;3967342;87;21665;-89
2021/12/07 06:42:50;;;;;;;45.17;19.67;;;;;;;-0.21;96.89;98593.39;3954638;88;21087;-86
2021/12/07 06:48:51;;;;;;;53.55;21.52;;;;;;;-0.22;96.66;98614.11;3948773;88;21131;-85
2021/12/07 06:54:52;;;;;;;45.28;19.67;;;;;;;-0.25;96.98;98608.59;3967111;88;21134;-85
2021/12/07 07:00:54;;;;;;;49.70;21.70;;;;;;;-0.18;97.12;98625.05;3958163;88;21022;-85
2021/12/07 07:06:56;;;;;;;53.35;23.80;;;;;;;-0.18;97.12;98625.05;3963100;88;21075;-91
2021/12/07 07:12:57;;;;;;;52.83;22.75;;;;;;;-0.13;96.90;98624.36;3960338;88;21028;-85
2021/12/07 07:18:58;;;;;;;54.83;23.52;;;;;;;-0.23;97.36;98622.50;3962124;88;21115;-85
2021/12/07 07:25:00;;;;;;;50.20;22.60;;;;;;;-0.23;97.36;98622.50;3967927;88;21063;-84
2021/12/07 07:31:05;;;;;;;182.53;58.20;;;;;;;-0.09;97.07;98641.44;3967920;88;21078;-84
2021/12/07 07:37:07;;;;;;;63.70;25.83;;;;;;;-0.03;97.09;98650.15;3963138;88;21057;-85
2021/12/07 07:43:08;;;;;;;51.00;21.77;;;;;;;-0.02;97.16;98651.75;3961847;88;21042;-89
2021/12/07 07:49:12;;;;;;;50.23;22.32;;;;;;;-0.02;97.16;98651.75;3957685;88;21087;-84
2021/12/07 07:55:15;;;;;;;50.75;21.55;;;;;;;-0.05;96.95;98647.77;3954537;88;21427;-85
2021/12/07 08:01:16;;;;;;;52.35;22.35;;;;;;;-0.09;96.87;98653.55;3962083;88;21060;-86
2021/12/07 08:07:17;;;;;;;52.93;22.75;;;;;;;-0.18;96.86;98651.95;3949991;88;21076;-85
2021/12/07 08:13:19;;;;;;;59.20;23.75;;;;;;;-0.18;96.86;98651.95;3959643;88;21054;-86
2021/12/07 08:19:22;;;;;;;56.08;25.43;;;;;;;-0.20;96.92;98657.64;3963318;88;21711;-86
2021/12/07 08:25:24;;;;;;;56.28;24.92;;;;;;;-0.20;96.89;98650.11;3950256;88;21652;-85
2021/12/07 08:31:27;;;;;;;55.03;24.57;;;;;;;-0.26;96.96;98650.83;3960040;88;21092;-85
2021/12/07 08:37:29;;;;;;;63.40;25.37;;;;;;;-0.30;96.94;98642.35;3962021;88;21063;-86
2021/12/07 08:43:33;;;;;;;59.53;24.43;;;;;;;-0.26;96.98;98651.37;3964685;88;21099;-85
2021/12/07 08:49:34;;;;;;;64.07;25.17;;;;;;;-0.30;97.18;98643.13;3950567;88;21090;-89
2021/12/07 09:02:04;;;;;;;59.30;25.70;;;;;;;-0.21;96.96;98654.72;3990306;87;21184;-88
2021/12/07 09:08:06;;;;;;;57.45;25.68;;;;;;;-0.24;96.96;98655.89;3983218;87;21084;-86
2021/12/07 09:14:10;;;;;;;55.75;24.25;;;;;;;-0.24;97.18;98655.34;3976799;87;21086;-86
2021/12/07 09:20:16;;;;;;;58.52;24.27;;;;;;;-0.27;97.04;98637.69;3984722;87;21042;-85
2021/12/07 09:26:16;;;;;;;55.33;25.75;;;;;;;-0.16;96.87;98652.44;3993428;87;21094;-87
2021/12/07 09:32:18;;;;;;;56.92;25.70;;;;;;;-0.15;96.86;98653.47;3986276;87;21190;-88
2021/12/07 09:38:21;;;;;;;57.78;26.10;;;;;;;-0.15;97.03;98652.12;3986915;87;21007;-86
2021/12/07 09:44:23;;;;;;;53.28;25.23;;;;;;;-0.08;96.93;98655.12;3932909;89;21095;-86
2021/12/07 09:50:25;;;;;;;63.35;28.20;;;;;;;-0.05;96.90;98662.57;3967124;87;21091;-86
2021/12/07 09:56:28;;;;;;;61.88;27.58;;;;;;;-0.01;97.05;98658.16;3954251;88;21644;-86
2021/12/07 10:02:30;;;;;;;75.03;33.00;;;;;;;0.05;96.92;98656.09;3951832;88;21121;-85
2021/12/07 10:08:32;;;;;;;64.75;26.42;;;;;;;0.05;96.74;98655.33;3960941;88;21094;-86
2021/12/07 10:14:41;;;;;;;63.63;29.12;;;;;;;-0.05;96.64;98638.92;3957730;88;21063;-86
2021/12/07 10:20:50;;;;;;;60.80;27.80;;;;;;;-0.12;96.59;98642.62;3966219;88;21116;-85
2021/12/07 10:26:51;;;;;;;70.40;30.25;;;;;;;-0.12;96.59;98642.62;3946892;88;21069;-86
2021/12/07 10:33:05;;;;;;;73.87;30.25;;;;;;;-0.04;96.65;98662.83;3958902;88;21046;-86
2021/12/07 10:39:15;;;;;;;74.72;31.90;;;;;;;-0.19;96.57;98640.38;3945379;88;21106;-88
2021/12/07 10:45:17;;;;;;;75.15;31.65;;;;;;;-0.06;96.75;98669.61;3955070;88;21153;-86
2021/12/07 10:51:18;;;;;;;72.75;29.63;;;;;;;-0.06;96.75;98669.61;4006044;86;54306;-88
2021/12/07 10:57:41;;;;;;;71.07;28.52;;;;;;;-0.01;96.62;98658.70;4023821;86;22288;-88
2021/12/07 11:03:42;;;;;;;70.65;30.00;;;;;;;-0.01;96.62;98658.70;4019819;86;21124;-87
2021/12/07 11:10:09;;;;;;;64.80;28.17;;;;;;;0.03;96.67;98656.98;4041224;86;21139;-87
2021/12/07 11:16:12;;;;;;;74.47;30.50;;;;;;;0.05;96.64;98658.02;4036902;86;22227;-86
2021/12/07 11:22:18;;;;;;;70.97;29.32;;;;;;;0.02;96.45;98662.11;4025996;86;22163;-86
2021/12/07 11:35:22;;;;;;;64.90;27.60;;;;;;;0.02;96.59;98666.72;4029037;86;21111;-85
2021/12/07 11:41:32;;;;;;;57.83;25.10;;;;;;;-0.02;96.46;98659.83;4029791;86;21080;-86
2021/12/07 11:47:48;;;;;;;59.53;26.40;;;;;;;-0.03;96.48;98669.78;4031625;86;21106;-85
2021/12/07 11:53:51;;;;;;;60.58;26.62;;;;;;;-0.01;96.61;98656.81;4031890;86;21619;-85
2021/12/07 11:59:54;;;;;;;63.52;26.17;;;;;;;-0.20;96.34;98640.70;4054660;86;21471;-84
2021/12/07 12:05:56;;;;;;;65.55;27.90;;;;;;;-0.20;96.34;98640.70;4045824;86;21065;-86
2021/12/07 12:12:40;;;;;;;63.63;27.02;;;;;;;-0.13;96.27;98662.02;4031173;86;21598;-85
2021/12/07 12:18:56;;;;;;;75.10;28.57;;;;;;;-0.11;96.41;98667.09;4036944;86;21100;-85
2021/12/07 12:25:11;;;;;;;71.23;29.00;;;;;;;-0.06;96.46;98674.45;4038452;85;21116;-88
2021/12/07 12:31:14;;;;;;;60.17;26.40;;;;;;;-0.06;96.25;98672.30;4062678;85;21142;-87
2021/12/07 12:37:21;;;;;;;63.40;25.65;;;;;;;-0.15;96.15;98658.05;4040062;86;21063;-87
2021/12/07 12:43:52;;;;;;;60.10;26.48;;;;;;;-0.12;96.06;98668.17;4028601;86;21094;-90
2021/12/07 12:49:53;;;;;;;60.12;26.85;;;;;;;-0.06;96.42;98668.27;4043540;86;21111;-86
2021/12/07 12:56:08;;;;;;;65.57;25.50;;;;;;;-0.06;96.27;98671.76;4037932;86;21036;-86
2021/12/07 13:02:13;;;;;;;68.40;26.02;;;;;;;-0.06;96.15;98678.48;4039707;86;21068;-85
2021/12/07 13:08:17;;;;;;;59.98;25.35;;;;;;;-0.05;96.11;98678.72;4038598;86;21160;-86
2021/12/07 13:14:28;;;;;;;63.80;27.95;;;;;;;-0.24;96.14;98655.89;4028041;86;21602;-87
2021/12/07 13:20:34;;;;;;;64.72;26.85;;;;;;;-0.01;96.08;98695.03;4041628;86;22618;-86
2021/12/07 13:26:41;;;;;;;47.70;21.80;;;;;;;-0.06;95.98;98700.55;4035298;86;21163;-86
2021/12/07 13:33:02;;;;;;;69.82;27.73;;;;;;;-0.05;96.12;98706.20;4036458;86;21142;-86
2021/12/07 13:39:23;;;;;;;62.35;27.05;;;;;;;-0.11;96.03;98704.76;4029569;86;21074;-87
2021/12/07 13:45:24;;;;;;;70.60;30.05;;;;;;;-0.26;95.88;98691.72;4027144;86;21111;-87
2021/12/07 13:51:28;;;;;;;71.80;29.65;;;;;;;-0.26;95.88;98691.72;4018518;86;21580;-86
2021/12/07 13:57:35;;;;;;;68.02;27.13;;;;;;;-0.26;96.08;98701.12;3995723;86;21617;-86
2021/12/07 14:03:43;;;;;;;64.40;27.77;;;;;;;-0.15;96.03;98718.03;3993152;87;21075;-87
2021/12/07 14:09:44;;;;;;;72.65;28.70;;;;;;;-0.18;96.11;98712.48;4002874;87;21086;-86
2021/12/07 14:15:49;;;;;;;64.55;27.05;;;;;;;-0.24;95.97;98719.11;4002055;87;21110;-87
2021/12/07 14:21:52;;;;;;;62.48;25.85;;;;;;;-0.18;95.94;98746.10;3994795;87;21031;-87
2021/12/07 14:27:55;;;;;;;70.85;27.62;;;;;;;-0.16;96.02;98750.63;3993737;87;21702;-86
2021/12/07 14:34:02;;;;;;;78.42;30.10;;;;;;;-0.08;96.24;98749.30;4000751;87;21131;-88
2021/12/07 14:40:06;;;;;;;;;;;;;;;-0.12;96.05;98755.08;4000491;87;21035;-87
2021/12/07 14:46:13;;;;;;;72.92;27.22;;;;;;;-0.09;96.15;98756.34;4004277;87;20171;-86
2021/12/07 14:52:28;;;;;;;74.03;29.00;;;;;;;-0.09;96.18;98747.72;3937600;89;21670;-87
2021/12/07 14:58:34;;;;;;;82.05;30.82;;;;;;;-0.22;95.77;98753.99;3923656;88;21133;-85
2021/12/07 15:04:36;;;;;;;63.17;28.30;;;;;;;-0.22;95.77;98753.99;3920724;88;21215;-87
2021/12/07 15:10:38;;;;;;;80.05;31.07;;;;;;;-0.21;95.99;98757.48;3928368;89;21162;-87
2021/12/07 15:16:42;;;;;;;81.57;30.27;;;;;;;-0.34;95.61;98773.97;3921561;88;21088;-85
2021/12/07 15:22:44;;;;;;;77.17;28.80;;;;;;;-0.45;95.72;98778.56;3922453;88;21896;-88
2021/12/07 15:29:06;;;;;;;81.78;30.45;;;;;;;-0.45;95.72;98778.56;3921959;88;21428;-91
2021/12/07 15:35:08;;;;;;;73.28;27.60;;;;;;;-0.48;95.88;98787.24;4008177;87;21574;-86
2021/12/07 15:41:11;;;;;;;79.15;30.50;;;;;;;-0.50;95.81;98788.13;4000930;87;21063;-86
2021/12/07 15:47:18;;;;;;;85.80;32.33;;;;;;;-0.53;95.77;98785.48;4009285;87;21581;-86
2021/12/07 15:53:20;;;;;;;76.28;29.30;;;;;;;-0.53;95.80;98789.52;4025514;86;21087;-86
2021/12/07 15:59:21;;;;;;;77.35;29.37;;;;;;;-0.66;95.69;98777.50;4032447;86;21063;-87
2021/12/07 16:05:24;;;;;;;63.28;26.07;;;;;;;-0.66;95.69;98777.50;4036808;86;21534;-85
2021/12/07 16:11:25;;;;;;;65.55;27.02;;;;;;;-0.57;95.58;98803.34;4032210;86;21549;-87
2021/12/07 16:17:28;;;;;;;71.05;26.27;;;;;;;-0.62;95.62;98803.46;4036205;86;21070;-87
2021/12/07 16:23:34;;;;;;;65.20;26.55;;;;;;;-0.61;95.42;98806.38;4026097;86;21126;-87
2021/12/07 16:29:36;;;;;;;66.17;28.00;;;;;;;-0.64;95.52;98807.57;4037433;86;21083;-88
2021/12/07 16:35:38;;;;;;;74.00;28.32;;;;;;;-0.68;95.45;98820.82;4042078;86;21051;-87
2021/12/07 16:41:40;;;;;;;76.35;30.15;;;;;;;-0.71;95.43;98813.37;4030866;86;21031;-85
2021/12/07 16:47:42;;;;;;;77.35;29.98;;;;;;;-0.72;95.64;98809.08;4031472;86;21152;-85
2021/12/07 16:53:45;;;;;;;76.67;32.00;;;;;;;-0.70;95.46;98812.26;4046585;85;21586;-86
2021/12/07 16:59:47;;;;;;;87.02;34.63;;;;;;;-0.74;95.43;98803.77;4032437;86;21028;-86
2021/12/07 17:05:52;;;;;;;83.82;32.58;;;;;;;-0.75;95.44;98795.47;4061273;85;21398;-87
2021/12/07 17:11:55;;;;;;;96.60;35.13;;;;;;;-0.81;95.29;98793.44;4036076;86;21054;-85
2021/12/07 17:17:57;;;;;;;89.07;32.75;;;;;;;-0.83;95.38;98791.60;4027151;86;21045;-91
2021/12/07 17:23:58;;;;;;;99.85;37.38;;;;;;;-0.81;95.40;98794.78;4040626;86;21620;-87
2021/12/07 17:30:00;;;;;;;107.55;40.88;;;;;;;-0.82;95.23;98795.89;4049459;86;21731;-85
2021/12/07 17:36:03;;;;;;;115.10;42.17;;;;;;;-0.81;95.39;98793.98;4038617;86;21063;-91
2021/12/07 17:42:05;;;;;;;84.15;35.60;;;;;;;-0.77;95.52;98786.91;4036553;86;21088;-85
2021/12/07 17:48:07;;;;;;;97.80;37.78;;;;;;;-0.78;95.26;98787.45;4044634;86;21662;-87
2021/12/07 17:54:09;;;;;;;108.13;39.47;;;;;;;-0.81;95.25;98796.67;4017338;87;21111;-86
2021/12/07 18:00:16;;;;;;;105.85;37.25;;;;;;;-0.83;95.41;98794.29;4021837;86;21087;-88
2021/12/07 18:06:17;;;;;;;95.22;37.42;;;;;;;-0.84;95.33;98791.37;4005779;87;21131;-87
2021/12/07 18:12:19;;;;;;;111.52;41.15;;;;;;;-0.85;95.48;98783.08;3924466;88;21080;-86
2021/12/07 18:18:21;;;;;;;113.68;39.15;;;;;;;-0.91;95.30;98781.58;3975382;87;21102;-86
2021/12/07 18:24:22;;;;;;;112.50;39.53;;;;;;;-0.96;95.45;98783.07;3971798;87;21079;-86
2021/12/07 18:30:35;;;;;;;110.03;39.85;;;;;;;-0.99;95.71;98784.22;3968226;87;21781;-86
2021/12/07 18:36:36;;;;;;;111.87;41.03;;;;;;;-0.99;95.71;98784.22;3975070;87;21048;-88
2021/12/07 18:42:39;;;;;;;115.90;44.15;;;;;;;-0.99;95.61;98780.19;3972042;87;21119;-87
2021/12/07 18:48:40;;;;;;;111.03;39.43;;;;;;;-0.94;95.68;98788.14;3968142;87;21128;-86
2021/12/07 18:54:42;;;;;;;105.97;40.92;;;;;;;-0.98;95.74;98783.11;3901447;87;21114;-87
2021/12/07 19:00:48;;;;;;;102.55;42.40;;;;;;;-1.01;95.66;98778.34;3887059;89;21159;-89
2021/12/07 19:06:50;;;;;;;108.60;40.60;;;;;;;-1.03;95.77;98790.74;3886161;89;21051;-85
2021/12/07 19:12:52;;;;;;;93.75;37.10;;;;;;;-1.07;95.72;98788.97;3854598;90;21077;-85
2021/12/07 19:18:54;;;;;;;102.17;38.23;;;;;;;-1.07;95.85;98796.48;3856779;90;21702;-85
2021/12/07 19:24:56;;;;;;;94.07;36.60;;;;;;;-1.04;95.77;98803.94;3859294;90;21169;-85
2021/12/07 19:31:02;;;;;;;93.22;37.88;;;;;;;-1.10;95.66;98807.04;3862648;90;21651;-87
2021/12/07 19:37:04;;;;;;;98.53;38.60;;;;;;;-1.14;95.68;98811.44;3861534;90;21570;-85
2021/12/07 19:43:09;;;;;;;97.50;37.08;;;;;;;-1.19;95.69;98801.58;3867542;90;21569;-88
2021/12/07 19:49:12;;;;;;;112.62;44.05;;;;;;;-1.23;95.74;98801.95;3873146;90;21105;-85
2021/12/07 19:55:16;;;;;;;113.80;39.23;;;;;;;-1.25;95.86;98800.11;3910103;88;21085;-86
2021/12/07 20:01:21;;;;;;;106.07;37.50;;;;;;;-1.17;96.04;98798.05;3986645;87;21057;-87
2021/12/07 20:07:23;;;;;;;110.10;37.50;;;;;;;-1.13;95.98;98796.36;3987632;87;21162;-85
2021/12/07 20:13:26;;;;;;;111.97;40.78;;;;;;;-1.14;95.78;98799.36;3992212;87;21131;-88
2021/12/07 20:19:27;;;;;;;105.63;38.28;;;;;;;-1.21;95.76;98801.11;3989352;87;21025;-85
2021/12/07 20:25:29;;;;;;;109.60;38.23;;;;;;;-1.27;95.78;98799.64;3983936;87;21563;-87
2021/12/07 20:31:35;;;;;;;113.30;40.33;;;;;;;-1.31;95.84;98799.98;3984195;87;22057;-84
2021/12/07 20:37:36;;;;;;;121.97;40.43;;;;;;;-1.31;96.07;98803.20;3984819;87;21066;-88
2021/12/07 20:43:43;;;;;;;132.52;44.70;;;;;;;-1.28;96.08;98797.26;3988475;87;21119;-84
2021/12/07 20:49:44;;;;;;;;;;;;;;;-1.29;96.05;98795.66;3990404;87;21500;-84
2021/12/07 20:55:46;;;;;;;117.87;42.43;;;;;;;-1.32;96.04;98797.06;3990471;87;20163;-86
2021/12/07 21:01:48;;;;;;;112.45;40.43;;;;;;;-1.36;96.00;98796.63;3979596;87;21084;-85
2021/12/07 21:07:50;;;;;;;125.72;46.53;;;;;;;-1.41;95.99;98794.85;3973950;87;21071;-86
2021/12/07 21:13:55;;;;;;;132.57;45.43;;;;;;;-1.40;96.22;98804.48;3992770;87;21150;-86
2021/12/07 21:19:56;;;;;;;103.35;33.92;;;;;;;-1.41;96.14;98796.19;3979383;87;21056;-84
2021/12/07 21:25:58;;;;;;;126.43;43.33;;;;;;;-1.44;96.01;98800.80;3997673;87;21119;-84
2021/12/07 21:31:59;;;;;;;138.30;43.40;;;;;;;-1.47;96.20;98798.72;3983276;87;21761;-84
2021/12/07 21:38:01;;;;;;;127.83;44.13;;;;;;;-1.52;96.22;98792.67;3982306;87;21565;-84
2021/12/07 21:44:03;;;;;;;121.43;41.00;;;;;;;-1.52;96.35;98798.05;3985828;87;21236;-84
2021/12/07 21:50:09;;;;;;;133.40;43.53;;;;;;;-1.50;96.40;98796.64;3997965;87;21036;-86
2021/12/07 21:56:10;;;;;;;124.85;42.08;;;;;;;-1.51;96.31;98792.91;3996628;87;21460;-85
2021/12/07 22:02:11;;;;;;;111.23;39.10;;;;;;;-1.51;96.51;98795.05;4011190;86;21132;-84
2021/12/07 22:08:17;;;;;;;109.03;37.63;;;;;;;-1.55;96.30;98787.91;4015333;87;21598;-84
2021/12/07 22:14:19;;;;;;;97.17;36.60;;;;;;;-1.59;96.43;98778.31;4004177;87;21560;-85
2021/12/07 22:20:20;;;;;;;106.47;37.33;;;;;;;-1.62;96.41;98777.04;4019458;87;21068;-84
2021/12/07 22:26:22;;;;;;;102.30;37.33;;;;;;;-1.65;96.42;98766.91;4000662;87;21087;-84
2021/12/07 22:32:24;;;;;;;93.37;32.40;;;;;;;-1.67;96.41;98769.62;4011598;87;21047;-86
2021/12/07 22:38:25;;;;;;;78.47;31.07;;;;;;;-1.66;96.51;98752.45;3987666;87;21092;-84
2021/12/07 22:44:27;;;;;;;89.87;32.53;;;;;;;-1.69;96.40;98759.73;4007706;87;21076;-83
2021/12/07 22:50:31;;;;;;;85.92;31.10;;;;;;;-1.74;96.40;98758.52;3952954;89;21729;-85
2021/12/07 22:56:33;;;;;;;87.10;30.37;;;;;;;-1.74;96.38;98757.17;3972584;87;21579;-84
2021/12/07 23:02:34;;;;;;;90.00;31.63;;;;;;;-1.78;96.41;98756.98;3973624;87;21071;-85
2021/12/07 23:08:38;;;;;;;95.50;30.93;;;;;;;-1.81;96.45;98750.87;4002470;87;21823;-88
2021/12/07 23:14:39;;;;;;;110.27;33.97;;;;;;;-1.86;96.52;98755.53;4003422;87;21032;-84
2021/12/07 23:20:43;;;;;;;94.00;32.47;;;;;;;-1.93;96.56;98756.50;3939055;88;21076;-84
2021/12/07 23:26:49;;;;;;;93.83;32.03;;;;;;;-2.00;96.71;98763.59;3938386;89;21402;-84
2021/12/07 23:32:51;;;;;;;;;;;;;;;-2.05;96.72;98754.30;3942681;89;21108;-85
2021/12/07 23:38:55;;;;;;;102.60;32.60;;;;;;;-2.07;96.76;98739.62;3942609;88;20149;-84
2021/12/07 23:44:57;;;;;;;104.87;32.63;;;;;;;-2.15;96.81;98729.58;3999474;87;21641;-84
2021/12/07 23:50:59;;;;;;;97.03;30.23;;;;;;;-2.14;96.92;98730.63;4006317;86;21086;-84
2021/12/07 23:57:00;;;;;;;95.37;29.43;;;;;;;-2.15;97.02;98718.31;4037216;86;21055;-84
